アディスアベバ の空港の天気 - METARとTAF

ボレ国際空港(アディスアベバ) ( HAAB / ADD ) - エチオピア アディスアベバ
飛行場実況気象(Metar)
観測時間11/27 09:00 EAT (11/27 06:00 UTC)
風向・風速東 3m/s
視程10km以上
天気現象
なし
気温17℃
湿度55%
気圧1026hPa
METARHAAB 270600Z 10006KT CAVOK 17/08 Q1026 NOSIG
過去の天気等 Google飛行場航空写真 Wunderground天気予報

過去48時間のMETAR

飛行場予報(TAF)
発表時間: 11/26 18:30 EAT (11/26 15:30 UTC)
予報対象時間: 26日21時 EAT ~ 28日3時 EAT
風向・風速東 4m/s
視程10km以上
天気現象弱い煙霧
全天の4割程度の雲 雲底高度 760m
全天の4割程度の雲 雲底高度 2740m
27日12時 EAT ~ 27日18時 EAT に徐々に
天気現象煙霧
全天の4割程度の雲 雲底高度 760m
全天の8割程度の雲 雲底高度 2130m
TAF HAAB 261530Z 2618/2724 09008KT 9999 -HZ SCT025 SCT090
BECMG 2709/2715 HZ SCT025 BKN070